createdAt,value
2018-01-10T00:00:16.297Z,6.63
2018-01-10T00:01:16.306Z,6.65
2018-01-10T00:02:16.302Z,6.66
2018-01-10T00:03:16.308Z,6.65
2018-01-10T00:04:16.308Z,6.71
2018-01-10T00:05:16.314Z,6.66
2018-01-10T00:06:16.313Z,6.71
2018-01-10T00:07:16.319Z,6.62
2018-01-10T00:08:16.317Z,6.63
2018-01-10T00:09:16.324Z,6.80
2018-01-10T00:10:16.325Z,6.79
2018-01-10T00:11:16.329Z,6.81
2018-01-10T00:12:16.330Z,6.77
2018-01-10T00:13:16.337Z,6.79
2018-01-10T00:14:16.336Z,6.80
2018-01-10T00:15:16.341Z,6.73
2018-01-10T00:16:16.344Z,6.90
2018-01-10T00:17:16.341Z,6.86
2018-01-10T00:18:16.347Z,6.97
2018-01-10T00:19:16.352Z,6.99
2018-01-10T00:20:16.356Z,6.97
2018-01-10T00:21:16.357Z,7.01
2018-01-10T00:22:16.356Z,6.94
2018-01-10T00:23:16.363Z,6.97
2018-01-10T00:24:16.365Z,6.87
2018-01-10T00:25:16.367Z,6.99
2018-01-10T00:26:16.369Z,6.95
2018-01-10T00:27:16.374Z,6.98
2018-01-10T00:28:16.379Z,6.95
2018-01-10T00:29:16.380Z,6.95
2018-01-10T00:30:16.395Z,6.91
2018-01-10T00:31:16.385Z,6.97
2018-01-10T00:32:16.386Z,7.04
2018-01-10T00:33:16.392Z,7.01
2018-01-10T00:34:16.395Z,7.04
2018-01-10T00:35:16.394Z,7.07
2018-01-10T00:36:16.400Z,7.13
2018-01-10T00:37:16.405Z,7.23
2018-01-10T00:38:16.409Z,7.24
2018-01-10T00:39:16.407Z,7.27
2018-01-10T00:40:16.410Z,7.24
2018-01-10T00:41:16.416Z,7.34
2018-01-10T00:42:16.418Z,7.34
2018-01-10T00:43:16.420Z,7.32
2018-01-10T00:44:16.418Z,7.32
2018-01-10T00:45:16.431Z,7.24
2018-01-10T00:46:16.434Z,7.27
2018-01-10T00:47:16.433Z,7.31
2018-01-10T00:48:16.437Z,7.31
2018-01-10T00:49:16.440Z,7.27
2018-01-10T00:50:16.445Z,7.32
2018-01-10T00:51:16.442Z,7.27
2018-01-10T00:52:16.450Z,7.24
2018-01-10T00:53:16.454Z,7.29
2018-01-10T00:54:16.455Z,7.24
2018-01-10T00:55:16.454Z,7.27
2018-01-10T00:56:16.463Z,7.26
2018-01-10T00:57:16.462Z,7.27
2018-01-10T00:58:16.464Z,7.26
2018-01-10T00:59:16.468Z,7.27
2018-01-10T01:00:16.471Z,7.29
2018-01-10T01:01:16.470Z,7.32
2018-01-10T01:02:16.476Z,7.29
2018-01-10T01:03:16.478Z,7.41
2018-01-10T01:04:16.502Z,7.29
2018-01-10T01:05:16.484Z,7.29
2018-01-10T01:06:16.484Z,7.29
2018-01-10T01:07:16.491Z,7.37
2018-01-10T01:08:16.494Z,7.35
2018-01-10T01:09:16.502Z,7.34
2018-01-10T01:10:16.496Z,7.32
2018-01-10T01:11:16.505Z,7.34
2018-01-10T01:12:16.507Z,7.27
2018-01-10T01:13:16.506Z,7.24
2018-01-10T01:14:16.516Z,7.24
2018-01-10T01:15:16.514Z,7.23
2018-01-10T01:16:16.529Z,7.31
2018-01-10T01:17:16.526Z,7.27
2018-01-10T01:18:16.526Z,7.29
2018-01-10T01:19:16.525Z,7.24
2018-01-10T01:20:16.532Z,7.26
2018-01-10T01:21:16.532Z,7.29
2018-01-10T01:22:16.538Z,7.31
2018-01-10T01:23:16.544Z,7.34
2018-01-10T01:24:16.544Z,7.29
2018-01-10T01:25:16.543Z,7.29
2018-01-10T01:26:16.574Z,7.38
2018-01-10T01:27:16.557Z,7.29
2018-01-10T01:28:16.553Z,7.35
2018-01-10T01:29:16.560Z,7.40
2018-01-10T01:30:16.559Z,7.29
2018-01-10T01:31:16.569Z,7.29
2018-01-10T01:32:16.567Z,7.34
2018-01-10T01:33:16.572Z,7.32
2018-01-10T01:34:16.571Z,7.44
2018-01-10T01:35:16.577Z,7.40
2018-01-10T01:36:16.578Z,7.34
2018-01-10T01:37:16.590Z,7.38
2018-01-10T01:38:16.584Z,7.41
2018-01-10T01:39:16.585Z,7.45
2018-01-10T01:40:16.591Z,7.37
2018-01-10T01:41:16.596Z,7.44
2018-01-10T01:42:16.600Z,7.34
2018-01-10T01:43:16.601Z,7.31
2018-01-10T01:44:16.604Z,7.41
2018-01-10T01:45:16.602Z,7.45
2018-01-10T01:46:16.607Z,7.49
2018-01-10T01:47:16.618Z,7.42
2018-01-10T01:48:16.619Z,7.50
2018-01-10T01:49:16.620Z,7.47
2018-01-10T01:50:16.623Z,7.41
2018-01-10T01:51:16.627Z,7.42
2018-01-10T01:52:16.629Z,7.37
2018-01-10T01:53:16.636Z,7.44
2018-01-10T01:54:16.640Z,7.41
2018-01-10T01:55:16.639Z,7.50
2018-01-10T01:56:16.642Z,7.62
2018-01-10T01:57:16.643Z,7.55
2018-01-10T01:58:16.647Z,7.59
2018-01-10T01:59:16.650Z,7.55
2018-01-10T02:00:16.660Z,7.60
2018-01-10T02:01:16.658Z,7.69
2018-01-10T02:02:16.666Z,7.67
2018-01-10T02:03:16.664Z,7.59
2018-01-10T02:04:16.672Z,7.58
2018-01-10T02:05:16.670Z,7.55
2018-01-10T02:06:16.675Z,7.58
2018-01-10T02:07:16.684Z,7.47
2018-01-10T02:08:16.683Z,7.49
2018-01-10T02:09:17.585Z,7.58
2018-01-10T02:10:16.691Z,7.56
2018-01-10T02:11:16.692Z,7.59
2018-01-10T02:12:16.697Z,7.62
2018-01-10T02:13:16.700Z,7.59
2018-01-10T02:14:16.702Z,7.50
2018-01-10T02:15:16.703Z,7.49
2018-01-10T02:16:16.709Z,7.41
2018-01-10T02:17:16.713Z,7.45
2018-01-10T02:18:16.714Z,7.52
2018-01-10T02:19:16.721Z,7.47
2018-01-10T02:20:16.721Z,7.41
2018-01-10T02:21:16.728Z,7.42
2018-01-10T02:22:16.725Z,7.42
2018-01-10T02:23:16.734Z,7.40
2018-01-10T02:24:16.736Z,7.42
2018-01-10T02:25:16.743Z,7.37
2018-01-10T02:26:16.744Z,7.40
2018-01-10T02:27:16.741Z,7.50
2018-01-10T02:28:16.747Z,7.49
2018-01-10T02:29:16.753Z,7.45
2018-01-10T02:30:16.751Z,7.52
2018-01-10T02:31:16.754Z,7.45
2018-01-10T02:32:16.758Z,7.58
2018-01-10T02:33:16.764Z,7.55
2018-01-10T02:34:16.769Z,7.49
2018-01-10T02:35:16.768Z,7.52
2018-01-10T02:36:16.770Z,7.47
2018-01-10T02:37:16.778Z,7.42
2018-01-10T02:38:16.778Z,7.52
2018-01-10T02:39:16.786Z,7.45
2018-01-10T02:40:16.785Z,7.41
2018-01-10T02:41:16.786Z,7.47
2018-01-10T02:42:16.790Z,7.56
2018-01-10T02:43:16.799Z,7.53
2018-01-10T02:44:16.800Z,7.50
2018-01-10T02:45:16.800Z,7.52
2018-01-10T02:46:16.839Z,7.45
2018-01-10T02:47:16.809Z,7.44
2018-01-10T02:48:16.812Z,7.47
2018-01-10T02:49:16.814Z,7.52
2018-01-10T02:50:16.816Z,7.47
2018-01-10T02:51:16.823Z,7.47
2018-01-10T02:52:16.828Z,7.42
2018-01-10T02:53:16.828Z,7.47
2018-01-10T02:54:16.828Z,7.47
2018-01-10T02:55:16.834Z,7.38
2018-01-10T02:56:16.834Z,7.41
2018-01-10T02:57:16.841Z,7.41
2018-01-10T02:58:16.845Z,7.45
2018-01-10T02:59:16.845Z,7.38
2018-01-10T03:00:16.852Z,7.40
2018-01-10T03:01:16.851Z,7.40
2018-01-10T03:02:16.861Z,7.31
2018-01-10T03:03:16.858Z,7.27
2018-01-10T03:04:16.863Z,7.26
2018-01-10T03:05:16.874Z,7.38
2018-01-10T03:06:16.874Z,7.41
2018-01-10T03:07:16.869Z,7.29
2018-01-10T03:08:16.880Z,7.38
2018-01-10T03:09:16.881Z,7.41
2018-01-10T03:10:16.882Z,7.44
2018-01-10T03:11:16.882Z,7.38
2018-01-10T03:12:16.887Z,7.41
2018-01-10T03:13:16.894Z,7.34
2018-01-10T03:14:16.890Z,7.31
2018-01-10T03:15:16.899Z,7.35
2018-01-10T03:16:16.896Z,7.42
2018-01-10T03:17:16.905Z,7.41
2018-01-10T03:18:16.906Z,7.42
2018-01-10T03:19:16.910Z,7.38
2018-01-10T03:20:16.921Z,7.49
2018-01-10T03:21:16.913Z,7.42
2018-01-10T03:22:16.921Z,7.42
2018-01-10T03:23:16.923Z,7.40
2018-01-10T03:24:16.926Z,7.35
2018-01-10T03:25:16.925Z,7.35
2018-01-10T03:26:16.932Z,7.35
2018-01-10T03:27:16.931Z,7.37
2018-01-10T03:28:16.937Z,7.34
2018-01-10T03:29:16.942Z,7.34
2018-01-10T03:30:16.948Z,7.34
2018-01-10T03:31:16.945Z,7.26
2018-01-10T03:32:16.947Z,7.32
2018-01-10T03:33:16.956Z,7.29
2018-01-10T03:34:16.955Z,7.32
2018-01-10T03:35:16.955Z,7.31
2018-01-10T03:36:18.377Z,7.29
2018-01-10T03:37:18.409Z,7.34
2018-01-10T03:38:18.348Z,7.31
2018-01-10T03:39:16.975Z,7.26
2018-01-10T03:40:16.974Z,7.27
2018-01-10T03:41:16.978Z,7.32
2018-01-10T03:42:16.983Z,7.31
2018-01-10T03:43:16.986Z,7.27
2018-01-10T03:44:16.982Z,7.29
2018-01-10T03:45:16.989Z,7.34
2018-01-10T03:46:16.989Z,7.26
2018-01-10T03:47:17.050Z,7.31
2018-01-10T03:48:17.002Z,7.34
2018-01-10T03:49:17.002Z,7.32
2018-01-10T03:50:17.006Z,7.29
2018-01-10T03:51:17.010Z,7.31
2018-01-10T03:52:17.012Z,7.27
2018-01-10T03:53:17.018Z,7.27
2018-01-10T03:54:17.020Z,7.26
2018-01-10T03:55:17.019Z,7.22
2018-01-10T03:56:17.018Z,7.27
2018-01-10T03:57:17.031Z,7.24
2018-01-10T03:58:17.030Z,7.23
2018-01-10T03:59:17.031Z,7.22
2018-01-10T04:00:17.039Z,7.23
2018-01-10T04:01:17.038Z,7.26
2018-01-10T04:02:17.041Z,7.24
2018-01-10T04:03:17.044Z,7.23
2018-01-10T04:04:17.053Z,7.23
2018-01-10T04:05:17.049Z,7.23
2018-01-10T04:06:17.053Z,7.23
2018-01-10T04:07:17.059Z,7.23
2018-01-10T04:08:17.060Z,7.19
2018-01-10T04:09:17.065Z,7.27
2018-01-10T04:10:17.064Z,7.24
2018-01-10T04:11:17.072Z,7.27
2018-01-10T04:12:17.074Z,7.22
2018-01-10T04:14:17.080Z,7.24
2018-01-10T04:15:17.079Z,7.31
2018-01-10T04:16:17.084Z,7.32
2018-01-10T04:17:17.093Z,7.31
2018-01-10T04:18:17.092Z,7.27
2018-01-10T04:19:17.092Z,7.26
2018-01-10T04:20:17.094Z,7.32
2018-01-10T04:21:17.102Z,7.35
2018-01-10T04:22:17.103Z,7.41
2018-01-10T04:23:17.105Z,7.34
2018-01-10T04:26:17.113Z,7.38
2018-01-10T04:27:17.122Z,7.42
2018-01-10T04:28:17.121Z,7.50
2018-01-10T04:29:17.127Z,7.59
2018-01-10T04:30:17.130Z,7.58
2018-01-10T04:31:17.133Z,7.47
2018-01-10T04:32:17.138Z,7.49
2018-01-10T04:33:17.136Z,7.49
2018-01-10T04:34:17.144Z,7.47
2018-01-10T04:35:17.142Z,7.41
2018-01-10T04:36:17.149Z,7.45
2018-01-10T04:37:17.153Z,7.37
2018-01-10T04:38:17.157Z,7.45
2018-01-10T04:39:17.156Z,7.38
2018-01-10T04:40:17.158Z,7.40
2018-01-10T04:41:17.167Z,7.45
2018-01-10T04:42:17.164Z,7.44
2018-01-10T04:43:17.167Z,7.44
2018-01-10T04:44:17.174Z,7.41
2018-01-10T04:45:17.175Z,7.37
2018-01-10T04:46:17.199Z,7.42
2018-01-10T04:47:17.186Z,7.32
2018-01-10T04:48:17.180Z,7.40
2018-01-10T04:49:17.189Z,7.45
2018-01-10T04:50:17.195Z,7.41
2018-01-10T04:51:17.197Z,7.38
2018-01-10T04:52:17.196Z,7.45
2018-01-10T04:53:17.203Z,7.40
2018-01-10T04:54:17.201Z,7.49
2018-01-10T04:55:17.211Z,7.58
2018-01-10T04:56:17.207Z,7.50
2018-01-10T04:57:17.213Z,7.44
2018-01-10T04:58:17.216Z,7.52
2018-01-10T04:59:17.221Z,7.44
2018-01-10T05:00:17.225Z,7.42
2018-01-10T05:01:17.225Z,7.44
2018-01-10T05:02:17.231Z,7.45
2018-01-10T05:03:17.231Z,7.41
2018-01-10T05:04:17.234Z,7.49
2018-01-10T05:05:17.240Z,7.45
2018-01-10T05:06:17.245Z,7.35
2018-01-10T05:07:17.242Z,7.50
2018-01-10T05:08:17.246Z,7.44
2018-01-10T05:09:17.252Z,7.45
2018-01-10T05:10:17.255Z,7.52
2018-01-10T05:11:17.254Z,7.45
2018-01-10T05:12:17.260Z,7.47
2018-01-10T05:13:18.941Z,7.56
2018-01-10T05:14:17.264Z,7.49
2018-01-10T05:15:17.270Z,7.56
2018-01-10T05:16:17.274Z,7.47
2018-01-10T05:17:17.277Z,7.53
2018-01-10T05:18:17.290Z,7.52
2018-01-10T05:19:17.285Z,7.60
2018-01-10T05:20:17.289Z,7.55
2018-01-10T05:21:17.288Z,7.59
2018-01-10T05:22:17.296Z,7.56
2018-01-10T05:23:17.294Z,7.58
2018-01-10T05:24:17.301Z,7.58
2018-01-10T05:25:17.308Z,7.59
2018-01-10T05:26:17.306Z,7.59
2018-01-10T05:27:17.309Z,7.56
2018-01-10T05:28:17.316Z,7.63
2018-01-10T05:29:17.318Z,7.66
2018-01-10T05:30:17.314Z,7.66
2018-01-10T05:31:17.326Z,7.71
2018-01-10T05:32:17.323Z,7.71
2018-01-10T05:33:17.329Z,7.67
2018-01-10T05:34:17.334Z,7.66
2018-01-10T05:35:17.336Z,7.67
2018-01-10T05:36:17.341Z,7.75
2018-01-10T05:37:17.377Z,7.78
2018-01-10T05:38:17.343Z,7.82
2018-01-10T05:39:17.351Z,7.75
2018-01-10T05:40:17.350Z,7.75
2018-01-10T05:41:17.356Z,7.75
2018-01-10T05:42:17.354Z,7.85
2018-01-10T05:43:17.363Z,7.77
2018-01-10T05:44:17.362Z,7.75
2018-01-10T05:45:17.367Z,7.81
2018-01-10T05:46:17.373Z,7.81
2018-01-10T05:47:17.374Z,7.84
2018-01-10T05:48:17.382Z,7.77
2018-01-10T05:49:17.380Z,7.81
2018-01-10T05:50:17.381Z,7.85
2018-01-10T05:51:17.387Z,7.85
2018-01-10T05:52:17.391Z,7.81
2018-01-10T05:53:17.398Z,7.77
2018-01-10T05:54:17.399Z,7.81
2018-01-10T05:55:17.402Z,7.81
2018-01-10T05:56:17.405Z,7.82
2018-01-10T05:57:17.410Z,7.84
2018-01-10T05:58:17.425Z,7.84
2018-01-10T05:59:17.414Z,7.79
2018-01-10T06:00:17.417Z,7.74
2018-01-10T06:01:17.420Z,7.78
2018-01-10T06:02:17.423Z,7.81
2018-01-10T06:03:17.431Z,7.81
2018-01-10T06:04:17.432Z,7.78
2018-01-10T06:05:17.436Z,7.82
2018-01-10T06:06:17.443Z,7.84
2018-01-10T06:07:17.443Z,7.78
2018-01-10T06:08:17.447Z,7.74
2018-01-10T06:09:17.448Z,7.84
2018-01-10T06:10:17.452Z,7.84
2018-01-10T06:11:17.456Z,7.85
2018-01-10T06:12:17.458Z,7.84
2018-01-10T06:13:17.460Z,7.93
2018-01-10T06:14:17.464Z,7.97
2018-01-10T06:15:17.467Z,7.94
2018-01-10T06:16:17.470Z,7.90
2018-01-10T06:17:18.149Z,7.93
2018-01-10T06:18:17.480Z,7.99
2018-01-10T06:19:17.480Z,7.89
2018-01-10T06:20:17.491Z,7.97
2018-01-10T06:21:17.490Z,7.97
2018-01-10T06:22:17.492Z,7.93
2018-01-10T06:23:17.492Z,7.94
2018-01-10T06:24:17.496Z,7.92
2018-01-10T06:25:17.503Z,7.92
2018-01-10T06:26:17.510Z,7.93
2018-01-10T06:27:17.507Z,7.96
2018-01-10T06:28:17.514Z,7.94
2018-01-10T06:29:17.519Z,8.02
2018-01-10T06:30:17.521Z,7.99
2018-01-10T06:31:17.520Z,8.10
2018-01-10T06:32:17.524Z,8.02
2018-01-10T06:33:17.531Z,8.08
2018-01-10T06:34:17.530Z,8.03
2018-01-10T06:35:17.538Z,8.03
2018-01-10T06:36:17.538Z,7.92
2018-01-10T06:37:17.547Z,8.03
2018-01-10T06:38:17.544Z,8.04
2018-01-10T06:39:17.553Z,8.07
2018-01-10T06:40:17.552Z,8.03
2018-01-10T06:41:17.564Z,8.03
2018-01-10T06:42:17.559Z,8.02
2018-01-10T06:43:17.564Z,8.02
2018-01-10T06:44:17.566Z,8.04
2018-01-10T06:45:17.572Z,8.03
2018-01-10T06:46:18.153Z,8.12
2018-01-10T06:47:17.580Z,8.10
2018-01-10T06:48:17.587Z,8.12
2018-01-10T06:49:17.583Z,8.11
2018-01-10T06:50:17.587Z,8.00
2018-01-10T06:51:17.588Z,8.11
2018-01-10T06:52:17.596Z,8.15
2018-01-10T06:53:17.597Z,8.12
2018-01-10T06:54:17.602Z,8.15
2018-01-10T06:55:17.603Z,8.12
2018-01-10T06:56:17.610Z,8.08
2018-01-10T06:57:17.611Z,8.07
2018-01-10T06:58:17.615Z,8.14
2018-01-10T06:59:17.620Z,8.21
2018-01-10T07:00:17.622Z,8.18
2018-01-10T07:01:17.624Z,8.11
2018-01-10T07:02:17.630Z,8.11
2018-01-10T07:03:17.641Z,8.12
2018-01-10T07:04:17.660Z,8.14
2018-01-10T07:05:17.641Z,8.11
2018-01-10T07:06:17.643Z,8.10
2018-01-10T07:07:17.643Z,8.11
2018-01-10T07:08:17.648Z,8.15
2018-01-10T07:09:17.660Z,8.04
2018-01-10T07:10:17.658Z,8.02
2018-01-10T07:11:17.657Z,8.03
2018-01-10T07:12:17.665Z,8.02
2018-01-10T07:13:17.678Z,8.17
2018-01-10T07:14:17.672Z,8.02
2018-01-10T07:15:17.673Z,8.12
2018-01-10T07:16:17.678Z,8.00
2018-01-10T07:17:17.681Z,8.04
2018-01-10T07:18:17.685Z,8.02
2018-01-10T07:19:17.686Z,8.04
2018-01-10T07:20:17.689Z,8.12
2018-01-10T07:21:17.697Z,8.00
2018-01-10T07:22:17.699Z,8.08
2018-01-10T07:23:17.698Z,8.04
2018-01-10T07:24:17.706Z,8.10
2018-01-10T07:25:17.712Z,8.08
2018-01-10T07:26:17.716Z,8.11
2018-01-10T07:27:17.713Z,8.11
2018-01-10T07:28:17.717Z,8.04
2018-01-10T07:29:17.723Z,7.99
2018-01-10T07:30:17.725Z,8.08
2018-01-10T07:31:17.729Z,7.89
2018-01-10T07:32:17.731Z,7.90
2018-01-10T07:33:17.739Z,7.85
2018-01-10T07:34:17.739Z,7.85
2018-01-10T07:35:18.193Z,7.82
2018-01-10T07:36:17.744Z,7.82
2018-01-10T07:37:17.756Z,7.87
2018-01-10T07:38:17.753Z,7.78
2018-01-10T07:39:17.761Z,7.74
2018-01-10T07:40:17.756Z,7.81
2018-01-10T07:41:17.767Z,7.85
2018-01-10T07:42:17.764Z,7.82
2018-01-10T07:43:17.769Z,7.82
2018-01-10T07:44:17.775Z,7.89
2018-01-10T07:45:17.774Z,7.89
2018-01-10T07:46:17.780Z,7.94
2018-01-10T07:47:17.780Z,7.85
2018-01-10T07:48:17.791Z,7.97
2018-01-10T07:49:17.790Z,7.93
2018-01-10T07:50:17.794Z,7.94
2018-01-10T07:51:17.793Z,7.94
2018-01-10T07:52:17.803Z,7.93
2018-01-10T07:53:17.798Z,8.00
2018-01-10T07:54:17.804Z,8.00
2018-01-10T07:55:17.808Z,7.97
2018-01-10T07:56:17.816Z,7.96
2018-01-10T07:57:17.814Z,7.90
2018-01-10T07:58:17.826Z,7.89
2018-01-10T07:59:17.820Z,7.90
2018-01-10T08:00:17.824Z,7.97
2018-01-10T08:01:17.832Z,7.90
2018-01-10T08:02:17.832Z,7.94
2018-01-10T08:03:17.832Z,7.93
2018-01-10T08:04:17.838Z,8.02
2018-01-10T08:05:17.842Z,8.04
2018-01-10T08:06:17.849Z,8.03
2018-01-10T08:07:17.846Z,8.02
2018-01-10T08:08:17.850Z,8.10
2018-01-10T08:09:17.857Z,8.18
2018-01-10T08:10:17.860Z,8.17
2018-01-10T08:11:17.862Z,8.11
2018-01-10T08:12:17.864Z,8.14
2018-01-10T08:13:17.873Z,8.10
2018-01-10T08:14:17.874Z,8.08
2018-01-10T08:15:17.873Z,8.14
2018-01-10T08:16:17.883Z,8.12
2018-01-10T08:17:17.880Z,8.11
2018-01-10T08:18:17.888Z,8.07
2018-01-10T08:19:17.893Z,8.15
2018-01-10T08:20:17.894Z,8.08
2018-01-10T08:21:17.896Z,8.10
2018-01-10T08:22:17.893Z,8.10
2018-01-10T08:23:17.907Z,8.10
2018-01-10T08:24:17.907Z,8.11
2018-01-10T08:25:17.952Z,8.12
2018-01-10T08:26:17.911Z,8.12
2018-01-10T08:27:17.918Z,8.17
2018-01-10T08:28:17.925Z,8.17
2018-01-10T08:29:17.924Z,8.12
2018-01-10T08:30:17.929Z,8.25
2018-01-10T08:31:17.937Z,8.26
2018-01-10T08:32:17.936Z,8.30
2018-01-10T08:33:17.937Z,8.32
2018-01-10T08:34:17.943Z,8.32
2018-01-10T08:35:17.943Z,8.28
2018-01-10T08:36:17.951Z,8.40
2018-01-10T08:37:17.953Z,8.45
2018-01-10T08:38:17.960Z,8.45
2018-01-10T08:39:17.958Z,8.54
2018-01-10T08:40:17.961Z,8.55
2018-01-10T08:41:17.965Z,8.54
2018-01-10T08:42:17.971Z,8.63
2018-01-10T08:43:17.972Z,8.72
2018-01-10T08:44:17.977Z,8.83
2018-01-10T08:45:17.979Z,8.88
2018-01-10T08:46:17.982Z,8.91
2018-01-10T08:47:17.986Z,8.99
2018-01-10T08:48:17.990Z,9.02
2018-01-10T08:49:17.998Z,8.97
2018-01-10T08:50:17.997Z,9.06
2018-01-10T08:51:18.005Z,9.16
2018-01-10T08:52:18.006Z,9.27
2018-01-10T08:53:18.012Z,9.21
2018-01-10T08:54:18.013Z,9.20
2018-01-10T08:55:18.023Z,9.13
2018-01-10T08:56:18.027Z,9.06
2018-01-10T08:57:18.033Z,9.05
2018-01-10T08:58:18.029Z,9.16
2018-01-10T08:59:18.036Z,9.16
2018-01-10T09:00:18.036Z,9.12
2018-01-10T09:01:18.045Z,9.10
2018-01-10T09:02:18.049Z,9.18
2018-01-10T09:03:18.050Z,9.16
2018-01-10T09:04:18.057Z,9.20
2018-01-10T09:05:18.057Z,9.20
2018-01-10T09:06:18.060Z,9.18
2018-01-10T09:07:18.073Z,9.18
2018-01-10T09:08:18.072Z,9.24
2018-01-10T09:09:18.072Z,9.18
2018-01-10T09:10:18.079Z,9.16
2018-01-10T09:11:18.084Z,9.21
2018-01-10T09:12:18.086Z,9.27
2018-01-10T09:13:18.094Z,9.25
2018-01-10T09:14:18.100Z,9.18
2018-01-10T09:15:18.099Z,9.24
2018-01-10T09:16:18.105Z,9.21
2018-01-10T09:17:18.106Z,9.35
2018-01-10T09:18:18.112Z,9.31
2018-01-10T09:19:18.113Z,9.32
2018-01-10T09:20:18.123Z,9.24
2018-01-10T09:21:18.122Z,9.35
2018-01-10T09:22:18.125Z,9.27
2018-01-10T09:23:18.143Z,9.40
2018-01-10T09:24:18.141Z,9.28
2018-01-10T09:25:18.139Z,9.30
2018-01-10T09:26:18.143Z,9.31
2018-01-10T09:27:18.148Z,9.39
2018-01-10T09:28:18.153Z,9.42
2018-01-10T09:29:18.156Z,9.45
2018-01-10T09:30:18.160Z,9.21
2018-01-10T09:31:18.163Z,9.21
2018-01-10T09:32:18.172Z,9.16
2018-01-10T09:33:18.172Z,9.16
2018-01-10T09:34:18.176Z,9.23
2018-01-10T09:35:18.179Z,9.21
2018-01-10T09:36:18.187Z,9.20
2018-01-10T09:37:18.187Z,9.21
2018-01-10T09:38:18.198Z,9.21
2018-01-10T09:39:18.196Z,9.25
2018-01-10T09:40:18.202Z,9.16
2018-01-10T09:41:18.202Z,9.20
2018-01-10T09:42:18.212Z,9.23
2018-01-10T09:43:18.212Z,9.15
2018-01-10T09:44:18.218Z,8.99
2018-01-10T09:45:18.222Z,9.02
2018-01-10T09:46:18.225Z,9.02
2018-01-10T09:47:18.232Z,9.02
2018-01-10T09:48:18.231Z,9.10
2018-01-10T09:49:18.245Z,9.04
2018-01-10T09:50:18.243Z,8.99
2018-01-10T09:51:18.250Z,9.06
2018-01-10T09:52:18.249Z,9.02
2018-01-10T09:53:18.256Z,9.02
2018-01-10T09:54:18.257Z,9.09
2018-01-10T09:55:18.268Z,9.16
2018-01-10T09:56:18.264Z,9.12
2018-01-10T09:57:18.274Z,9.10
2018-01-10T09:58:18.273Z,9.23
2018-01-10T09:59:18.282Z,9.21
2018-01-10T10:00:18.281Z,9.21
2018-01-10T10:01:18.287Z,9.23
2018-01-10T10:02:18.291Z,9.15
2018-01-10T10:03:18.298Z,9.21
2018-01-10T10:04:18.308Z,9.15
2018-01-10T10:05:18.300Z,9.25
2018-01-10T10:06:18.309Z,9.25
2018-01-10T10:07:18.308Z,9.30
2018-01-10T10:08:18.317Z,9.32
2018-01-10T10:09:19.205Z,9.34
2018-01-10T10:10:18.322Z,9.27
2018-01-10T10:11:18.329Z,9.43
2018-01-10T10:12:18.333Z,9.40
2018-01-10T10:13:18.333Z,9.39
2018-01-10T10:14:18.336Z,9.43
2018-01-10T10:15:18.348Z,9.40
2018-01-10T10:16:18.349Z,9.46
2018-01-10T10:17:18.355Z,9.43
2018-01-10T10:18:18.353Z,9.38
2018-01-10T10:19:18.358Z,9.42
2018-01-10T10:20:18.362Z,9.40
2018-01-10T10:21:18.371Z,9.43
2018-01-10T10:22:18.375Z,9.40
2018-01-10T10:23:18.383Z,9.53
2018-01-10T10:24:18.380Z,9.58
2018-01-10T10:25:18.386Z,9.70
2018-01-10T10:26:18.389Z,9.67
2018-01-10T10:27:18.393Z,9.81
2018-01-10T10:28:18.395Z,9.68
2018-01-10T10:29:18.404Z,9.71
2018-01-10T10:30:18.408Z,9.73
2018-01-10T10:31:18.409Z,9.79
2018-01-10T10:32:18.413Z,9.76
2018-01-10T10:33:18.420Z,9.82
2018-01-10T10:34:18.423Z,9.79
2018-01-10T10:35:18.425Z,9.70
2018-01-10T10:36:18.430Z,9.81
2018-01-10T10:37:18.435Z,9.82
2018-01-10T10:38:18.442Z,9.83
2018-01-10T10:39:18.443Z,10.00
2018-01-10T10:40:18.449Z,9.96
2018-01-10T10:41:18.451Z,9.89
2018-01-10T10:42:18.457Z,10.04
2018-01-10T10:43:18.458Z,10.17
2018-01-10T10:44:18.468Z,10.24
2018-01-10T10:45:18.467Z,10.17
2018-01-10T10:46:18.475Z,10.12
2018-01-10T10:47:18.477Z,10.00
2018-01-10T10:48:18.484Z,9.94
2018-01-10T10:49:18.490Z,10.01
2018-01-10T10:50:18.496Z,9.93
2018-01-10T10:51:18.495Z,9.85
2018-01-10T10:52:18.501Z,9.91
2018-01-10T10:53:18.504Z,9.96
2018-01-10T10:54:18.513Z,9.94
2018-01-10T10:55:18.512Z,9.81
2018-01-10T10:56:18.516Z,9.85
2018-01-10T10:57:18.534Z,9.88
2018-01-10T10:58:18.526Z,9.88
2018-01-10T10:59:18.534Z,9.91
2018-01-10T11:00:18.536Z,9.78
2018-01-10T11:01:18.544Z,9.91
2018-01-10T11:02:18.543Z,9.83
2018-01-10T11:03:18.551Z,9.85
2018-01-10T11:04:18.553Z,9.85
2018-01-10T11:05:19.223Z,9.79
2018-01-10T11:06:18.562Z,9.88
2018-01-10T11:07:18.570Z,9.88
2018-01-10T11:08:18.570Z,9.85
2018-01-10T11:09:18.577Z,9.91
2018-01-10T11:10:18.579Z,9.86
2018-01-10T11:11:18.586Z,9.79
2018-01-10T11:12:18.589Z,9.76
2018-01-10T11:13:18.603Z,9.81
2018-01-10T11:14:18.597Z,9.91
2018-01-10T11:15:18.600Z,9.83
2018-01-10T11:16:18.605Z,9.81
2018-01-10T11:17:18.616Z,9.79
2018-01-10T11:18:18.621Z,9.86
2018-01-10T11:19:18.619Z,9.83
2018-01-10T11:20:18.626Z,9.97
2018-01-10T11:21:18.631Z,10.04
2018-01-10T11:22:18.635Z,9.96
2018-01-10T11:23:18.637Z,9.97
2018-01-10T11:24:18.641Z,10.01
2018-01-10T11:25:18.648Z,10.00
2018-01-10T11:26:18.658Z,10.04
2018-01-10T11:27:18.652Z,10.09
2018-01-10T11:28:18.660Z,10.14
2018-01-10T11:29:18.666Z,10.17
2018-01-10T11:30:18.670Z,10.19
2018-01-10T11:31:18.672Z,10.28
2018-01-10T11:32:18.678Z,10.21
2018-01-10T11:33:18.680Z,10.34
2018-01-10T11:34:18.691Z,10.36
2018-01-10T11:35:18.690Z,10.52
2018-01-10T11:36:18.696Z,10.52
2018-01-10T11:37:18.699Z,10.58
2018-01-10T11:38:18.707Z,10.56
2018-01-10T11:39:18.708Z,10.44
2018-01-10T11:40:18.717Z,10.59
2018-01-10T11:41:18.718Z,10.60
2018-01-10T11:42:18.725Z,10.62
2018-01-10T11:43:18.730Z,10.62
2018-01-10T11:44:18.737Z,10.55
2018-01-10T11:45:18.739Z,10.63
2018-01-10T11:46:18.744Z,10.66
2018-01-10T11:47:18.745Z,10.80
2018-01-10T11:48:18.753Z,10.83
2018-01-10T11:49:18.756Z,10.98
2018-01-10T11:50:18.766Z,10.99
2018-01-10T11:51:18.764Z,10.99
2018-01-10T11:52:18.769Z,11.07
2018-01-10T11:53:18.778Z,11.21
2018-01-10T11:54:18.783Z,11.24
2018-01-10T11:55:18.789Z,11.24
2018-01-10T11:56:18.788Z,11.36
2018-01-10T11:57:18.796Z,11.29
2018-01-10T11:58:18.803Z,11.34
2018-01-10T11:59:18.808Z,11.47
2018-01-10T12:00:18.808Z,11.50
2018-01-10T12:01:18.818Z,11.59
2018-01-10T12:02:18.819Z,11.59
2018-01-10T12:03:18.826Z,11.57
2018-01-10T12:04:18.829Z,11.57
2018-01-10T12:05:18.840Z,11.62
2018-01-10T12:06:18.841Z,11.54
2018-01-10T12:07:18.853Z,11.57
2018-01-10T12:08:18.851Z,11.59
2018-01-10T12:09:18.861Z,11.61
2018-01-10T12:10:18.871Z,11.61
2018-01-10T12:11:18.869Z,11.67
2018-01-10T12:12:18.875Z,11.49
2018-01-10T12:13:18.881Z,11.46
2018-01-10T12:14:18.886Z,11.47
2018-01-10T12:15:18.888Z,11.44
2018-01-10T12:16:18.900Z,11.53
2018-01-10T12:17:18.903Z,11.57
2018-01-10T12:18:18.912Z,11.54
2018-01-10T12:19:18.910Z,11.59
2018-01-10T12:20:18.917Z,11.59
2018-01-10T12:21:18.926Z,11.65
2018-01-10T12:22:18.929Z,11.56
2018-01-10T12:23:18.932Z,11.59
2018-01-10T12:24:18.943Z,11.61
2018-01-10T12:25:18.943Z,11.57
2018-01-10T12:26:18.949Z,11.67
2018-01-10T12:27:18.959Z,11.72
2018-01-10T12:28:18.963Z,11.75
2018-01-10T12:29:18.965Z,11.89
2018-01-10T12:30:18.986Z,11.89
2018-01-10T12:31:18.978Z,11.94
2018-01-10T12:32:18.983Z,12.06
2018-01-10T12:33:18.992Z,12.15
2018-01-10T12:34:19.000Z,12.11
2018-01-10T12:35:19.001Z,12.04
2018-01-10T12:36:19.004Z,12.12
2018-01-10T12:37:19.013Z,12.09
2018-01-10T12:38:19.014Z,12.12
2018-01-10T12:39:19.026Z,12.11
2018-01-10T12:40:19.026Z,12.06
2018-01-10T12:41:19.033Z,12.06
2018-01-10T12:42:19.038Z,11.93
2018-01-10T12:43:19.046Z,11.87
2018-01-10T12:44:19.055Z,11.86
2018-01-10T12:45:19.055Z,11.78
2018-01-10T12:46:19.065Z,11.70
2018-01-10T12:47:19.069Z,11.68
2018-01-10T12:48:19.076Z,11.71
2018-01-10T12:49:19.079Z,11.71
2018-01-10T12:50:19.084Z,11.68
2018-01-10T12:51:19.092Z,11.68
2018-01-10T12:52:19.098Z,11.74
2018-01-10T12:53:19.098Z,11.72
2018-01-10T12:54:19.106Z,11.64
2018-01-10T12:55:19.114Z,11.65
2018-01-10T12:56:19.120Z,11.64
2018-01-10T12:57:19.131Z,11.49
2018-01-10T12:58:19.127Z,11.36
2018-01-10T12:59:19.134Z,11.27
2018-01-10T13:00:19.142Z,11.29
2018-01-10T13:01:19.148Z,11.21
2018-01-10T13:02:19.149Z,11.21
2018-01-10T13:03:19.153Z,11.09
2018-01-10T13:04:19.190Z,11.21
2018-01-10T13:05:19.166Z,11.21
2018-01-10T13:06:19.168Z,11.20
2018-01-10T13:07:19.179Z,11.14
2018-01-10T13:08:19.183Z,11.19
2018-01-10T13:09:19.184Z,11.28
2018-01-10T13:10:19.189Z,11.31
2018-01-10T13:11:19.197Z,11.19
2018-01-10T13:12:19.201Z,11.16
2018-01-10T13:13:19.204Z,11.17
2018-01-10T13:14:19.211Z,11.13
2018-01-10T13:15:19.216Z,11.14
2018-01-10T13:16:19.221Z,11.16
2018-01-10T13:17:19.227Z,11.16